Time,TemperatureF,DewpointF,PressureIn,WindDirection,WindDirectionDegrees,WindSpeedMPH,WindSpeedGustMPH,Humidity,HourlyPrecipIn,Conditions,Clouds,dailyrainin,SoftwareType,DateUTC
2013-04-20 00:04:00,58.4,58.0,29.79,SW,232,8.0,23.0,99,0.00,,,0.00,weatherlink.com 1.10,2013-04-20 04:04:00,
2013-04-20 00:19:00,59.1,59.0,29.78,SSW,204,12.0,24.0,99,0.00,,,0.00,weatherlink.com 1.10,2013-04-20 04:19:00,
2013-04-20 00:34:00,59.3,59.0,29.77,SSE,161,25.0,33.0,98,0.00,,,0.00,weatherlink.com 1.10,2013-04-20 04:34:00,
2013-04-20 00:49:00,58.8,58.0,29.77,SSW,208,16.0,26.0,98,0.00,,,0.00,weatherlink.com 1.10,2013-04-20 04:49:00,
2013-04-20 01:04:00,58.7,58.0,29.76,SSW,200,17.0,27.0,98,0.01,,,0.01,weatherlink.com 1.10,2013-04-20 05:04:00,
2013-04-20 01:20:00,58.4,58.0,29.76,WSW,242,11.0,27.0,98,0.01,,,0.01,weatherlink.com 1.10,2013-04-20 05:20:00,
2013-04-20 01:35:00,59.1,59.0,29.75,SW,236,15.0,29.0,98,0.01,,,0.01,weatherlink.com 1.10,2013-04-20 05:35:00,
2013-04-20 01:50:00,58.4,58.0,29.75,SW,229,15.0,29.0,97,0.00,,,0.01,weatherlink.com 1.10,2013-04-20 05:50:00,
2013-04-20 02:06:00,58.2,58.0,29.74,WSW,250,12.0,28.0,98,0.00,,,0.01,weatherlink.com 1.10,2013-04-20 06:06:00,
2013-04-20 02:21:00,58.0,57.0,29.74,SW,233,23.0,27.0,97,0.00,,,0.01,weatherlink.com 1.10,2013-04-20 06:21:00,
2013-04-20 02:35:00,57.4,57.0,29.73,South,187,16.0,28.0,97,0.00,,,0.01,weatherlink.com 1.10,2013-04-20 06:35:00,
2013-04-20 02:50:00,57.2,57.0,29.72,WSW,256,13.0,25.0,98,0.00,,,0.01,weatherlink.com 1.10,2013-04-20 06:50:00,
2013-04-20 03:05:00,57.1,57.0,29.71,WSW,249,6.0,24.0,98,0.00,,,0.01,weatherlink.com 1.10,2013-04-20 07:05:00,
2013-04-20 03:20:00,57.2,57.0,29.70,WSW,243,17.0,23.0,98,0.00,,,0.01,weatherlink.com 1.10,2013-04-20 07:20:00,
2013-04-20 03:35:00,57.0,57.0,29.71,West,270,8.0,23.0,98,0.00,,,0.01,weatherlink.com 1.10,2013-04-20 07:35:00,
2013-04-20 03:50:00,57.3,57.0,29.71,WSW,246,19.0,28.0,99,0.09,,,0.10,weatherlink.com 1.10,2013-04-20 07:50:00,
2013-04-20 04:05:00,56.4,56.0,29.72,SW,233,23.0,25.0,98,0.09,,,0.10,weatherlink.com 1.10,2013-04-20 08:05:00,
2013-04-20 04:20:00,55.5,55.0,29.72,West,263,13.0,25.0,98,0.09,,,0.10,weatherlink.com 1.10,2013-04-20 08:20:00,
2013-04-20 04:35:00,55.2,55.0,29.71,SW,214,13.0,29.0,98,0.10,,,0.11,weatherlink.com 1.10,2013-04-20 08:35:00,
2013-04-20 04:50:00,55.0,55.0,29.71,SW,235,18.0,27.0,99,0.01,,,0.11,weatherlink.com 1.10,2013-04-20 08:50:00,
2013-04-20 05:05:00,55.6,55.0,29.71,WSW,252,23.0,27.0,99,0.01,,,0.11,weatherlink.com 1.10,2013-04-20 09:05:00,
2013-04-20 05:20:00,55.5,55.0,29.70,SW,232,19.0,26.0,99,0.01,,,0.11,weatherlink.com 1.10,2013-04-20 09:20:00,
2013-04-20 05:35:00,55.4,55.0,29.70,WSW,243,10.0,23.0,99,0.00,,,0.11,weatherlink.com 1.10,2013-04-20 09:35:00,
2013-04-20 05:50:00,55.0,55.0,29.71,WSW,256,12.0,24.0,99,0.00,,,0.11,weatherlink.com 1.10,2013-04-20 09:50:00,
2013-04-20 06:05:00,54.7,55.0,29.71,WSW,241,14.0,22.0,99,0.01,,,0.12,weatherlink.com 1.10,2013-04-20 10:05:00,
2013-04-20 06:20:00,54.7,55.0,29.71,WSW,249,11.0,21.0,99,0.01,,,0.12,weatherlink.com 1.10,2013-04-20 10:20:00,
2013-04-20 06:35:00,54.3,54.0,29.71,South,188,13.0,22.0,99,0.02,,,0.13,weatherlink.com 1.10,2013-04-20 10:35:00,
2013-04-20 06:50:00,54.2,54.0,29.72,WSW,248,8.0,19.0,99,0.02,,,0.13,weatherlink.com 1.10,2013-04-20 10:50:00,
2013-04-20 07:05:00,54.7,55.0,29.72,WSW,243,16.0,25.0,99,0.01,,,0.13,weatherlink.com 1.10,2013-04-20 11:05:00,
2013-04-20 07:20:00,54.7,55.0,29.73,West,260,14.0,25.0,99,0.01,,,0.14,weatherlink.com 1.10,2013-04-20 11:20:00,
2013-04-20 07:35:00,54.0,54.0,29.74,West,263,21.0,28.0,99,0.01,,,0.14,weatherlink.com 1.10,2013-04-20 11:35:00,
2013-04-20 07:51:00,52.8,53.0,29.73,WSW,248,13.0,22.0,99,0.01,,,0.14,weatherlink.com 1.10,2013-04-20 11:51:00,
2013-04-20 08:06:00,52.5,52.0,29.74,SW,233,15.0,23.0,99,0.01,,,0.14,weatherlink.com 1.10,2013-04-20 12:06:00,
2013-04-20 08:21:00,52.1,52.0,29.74,WSW,256,18.0,24.0,99,0.00,,,0.14,weatherlink.com 1.10,2013-04-20 12:21:00,
2013-04-20 08:36:00,51.9,52.0,29.76,West,270,27.0,32.0,99,0.00,,,0.14,weatherlink.com 1.10,2013-04-20 12:36:00,
2013-04-20 08:51:00,51.3,51.0,29.77,West,277,19.0,29.0,99,0.01,,,0.15,weatherlink.com 1.10,2013-04-20 12:51:00,
2013-04-20 09:06:00,51.8,52.0,29.78,NW,309,15.0,22.0,99,0.02,,,0.16,weatherlink.com 1.10,2013-04-20 13:06:00,
2013-04-20 09:21:00,50.2,50.0,29.78,North,4,12.0,14.0,98,0.03,,,0.17,weatherlink.com 1.10,2013-04-20 13:21:00,
2013-04-20 09:36:00,49.4,49.0,29.80,NNE,19,8.0,16.0,98,0.05,,,0.19,weatherlink.com 1.10,2013-04-20 13:36:00,
2013-04-20 09:51:00,48.9,48.0,29.82,NW,312,5.0,15.0,98,0.05,,,0.20,weatherlink.com 1.10,2013-04-20 13:51:00,
2013-04-20 10:06:00,48.0,48.0,29.82,NNW,338,17.0,18.0,98,0.06,,,0.22,weatherlink.com 1.10,2013-04-20 14:06:00,
2013-04-20 10:21:00,47.2,46.0,29.85,NW,311,10.0,16.0,97,0.06,,,0.23,weatherlink.com 1.10,2013-04-20 14:21:00,
2013-04-20 10:36:00,46.5,46.0,29.86,NW,316,11.0,18.0,96,0.05,,,0.24,weatherlink.com 1.10,2013-04-20 14:36:00,
2013-04-20 10:51:00,46.1,45.0,29.88,NW,311,7.0,15.0,96,0.06,,,0.26,weatherlink.com 1.10,2013-04-20 14:51:00,
2013-04-20 11:06:00,46.4,46.0,29.89,NW,322,8.0,12.0,97,0.06,,,0.28,weatherlink.com 1.10,2013-04-20 15:06:00,
2013-04-20 11:21:00,46.6,46.0,29.89,NW,316,7.0,10.0,97,0.06,,,0.29,weatherlink.com 1.10,2013-04-20 15:21:00,
2013-04-20 11:36:00,46.8,46.0,29.88,NW,311,9.0,10.0,97,0.06,,,0.30,weatherlink.com 1.10,2013-04-20 15:36:00,
2013-04-20 11:51:00,47.3,47.0,29.89,West,260,5.0,8.0,97,0.04,,,0.30,weatherlink.com 1.10,2013-04-20 15:51:00,
2013-04-20 12:06:00,48.1,47.0,29.88,West,278,2.0,6.0,97,0.02,,,0.30,weatherlink.com 1.10,2013-04-20 16:06:00,
2013-04-20 12:21:00,48.7,48.0,29.88,WSW,256,4.0,6.0,97,0.01,,,0.30,weatherlink.com 1.10,2013-04-20 16:21:00,
2013-04-20 12:36:00,49.8,49.0,29.88,SW,229,5.0,5.0,96,0.00,,,0.30,weatherlink.com 1.10,2013-04-20 16:36:00,
2013-04-20 12:51:00,49.6,48.0,29.88,WSW,239,3.0,7.0,95,0.00,,,0.30,weatherlink.com 1.10,2013-04-20 16:51:00,
2013-04-20 13:06:00,49.1,47.0,29.88,West,259,6.0,14.0,91,0.00,,,0.30,weatherlink.com 1.10,2013-04-20 17:06:00,
2013-04-20 13:21:00,49.2,46.0,29.88,West,259,12.0,15.0,87,0.00,,,0.30,weatherlink.com 1.10,2013-04-20 17:21:00,
2013-04-20 13:36:00,49.9,46.0,29.90,WSW,250,16.0,17.0,86,0.00,,,0.30,weatherlink.com 1.10,2013-04-20 17:36:00,
2013-04-20 13:51:00,49.6,46.0,29.91,West,259,16.0,22.0,87,0.00,,,0.30,weatherlink.com 1.10,2013-04-20 17:51:00,
2013-04-20 14:06:00,50.0,45.0,29.91,WSW,257,16.0,20.0,83,0.00,,,0.30,weatherlink.com 1.10,2013-04-20 18:06:00,
2013-04-20 14:21:00,50.2,46.0,29.91,WSW,241,18.0,21.0,85,0.00,,,0.30,weatherlink.com 1.10,2013-04-20 18:21:00,
2013-04-20 14:36:00,50.6,46.0,29.91,WSW,251,18.0,22.0,83,0.00,,,0.30,weatherlink.com 1.10,2013-04-20 18:36:00,
2013-04-20 14:51:00,49.9,47.0,29.91,WSW,246,14.0,20.0,90,0.00,,,0.30,weatherlink.com 1.10,2013-04-20 18:51:00,
2013-04-20 15:06:00,49.7,47.0,29.92,WSW,253,14.0,19.0,89,0.00,,,0.30,weatherlink.com 1.10,2013-04-20 19:06:00,
2013-04-20 15:21:00,50.3,47.0,29.93,WSW,257,12.0,18.0,88,0.00,,,0.30,weatherlink.com 1.10,2013-04-20 19:21:00,
2013-04-20 15:36:00,50.0,46.0,29.92,West,259,19.0,20.0,85,0.00,,,0.30,weatherlink.com 1.10,2013-04-20 19:36:00,
2013-04-20 15:51:00,50.0,46.0,29.93,WSW,249,17.0,20.0,87,0.00,,,0.30,weatherlink.com 1.10,2013-04-20 19:51:00,
2013-04-20 16:06:00,49.9,46.0,29.93,West,261,16.0,20.0,85,0.00,,,0.30,weatherlink.com 1.10,2013-04-20 20:06:00,
2013-04-20 16:22:00,50.1,46.0,29.93,West,262,17.0,21.0,85,0.00,,,0.30,weatherlink.com 1.10,2013-04-20 20:22:00,
2013-04-20 16:37:00,50.3,46.0,29.94,WSW,257,18.0,21.0,86,0.00,,,0.30,weatherlink.com 1.10,2013-04-20 20:37:00,
2013-04-20 16:52:00,50.5,46.0,29.95,SW,235,16.0,21.0,84,0.00,,,0.30,weatherlink.com 1.10,2013-04-20 20:52:00,
2013-04-20 17:07:00,50.0,46.0,29.96,WSW,240,20.0,25.0,85,0.00,,,0.30,weatherlink.com 1.10,2013-04-20 21:07:00,
2013-04-20 17:22:00,49.9,46.0,29.97,WSW,250,18.0,24.0,85,0.00,,,0.30,weatherlink.com 1.10,2013-04-20 21:22:00,
2013-04-20 17:37:00,49.6,46.0,29.97,West,259,20.0,24.0,86,0.00,,,0.30,weatherlink.com 1.10,2013-04-20 21:37:00,
2013-04-20 17:52:00,49.1,46.0,29.98,West,261,22.0,26.0,88,0.00,,,0.30,weatherlink.com 1.10,2013-04-20 21:52:00,
2013-04-20 18:07:00,49.2,46.0,29.98,SW,235,17.0,23.0,88,0.00,,,0.30,weatherlink.com 1.10,2013-04-20 22:07:00,
2013-04-20 18:22:00,49.4,46.0,29.99,West,262,19.0,23.0,89,0.00,,,0.30,weatherlink.com 1.10,2013-04-20 22:22:00,
2013-04-20 18:37:00,49.2,46.0,29.99,West,274,14.0,22.0,88,0.00,,,0.30,weatherlink.com 1.10,2013-04-20 22:37:00,
2013-04-20 18:52:00,49.4,46.0,29.99,WSW,250,20.0,22.0,88,0.00,,,0.30,weatherlink.com 1.10,2013-04-20 22:52:00,
2013-04-20 19:07:00,49.3,45.0,29.99,West,259,15.0,21.0,86,0.00,,,0.30,weatherlink.com 1.10,2013-04-20 23:07:00,
2013-04-20 19:22:00,49.5,45.0,30.00,West,269,16.0,18.0,85,0.00,,,0.30,weatherlink.com 1.10,2013-04-20 23:22:00,
2013-04-20 19:37:00,49.6,46.0,30.02,WNW,284,9.0,16.0,86,0.00,,,0.30,weatherlink.com 1.10,2013-04-20 23:37:00,
2013-04-20 19:52:00,49.8,43.0,30.02,West,266,17.0,21.0,78,0.00,,,0.30,weatherlink.com 1.10,2013-04-20 23:52:00,
2013-04-20 20:07:00,49.0,43.0,30.05,NNW,339,1.0,11.0,80,0.00,,,0.30,weatherlink.com 1.10,2013-04-21 00:07:00,
2013-04-20 20:22:00,48.2,43.0,30.06,NW,316,0.0,3.0,81,0.00,,,0.30,weatherlink.com 1.10,2013-04-21 00:22:00,
2013-04-20 20:37:00,46.1,42.0,30.07,NE,53,0.0,1.0,86,0.00,,,0.30,weatherlink.com 1.10,2013-04-21 00:37:00,
2013-04-20 20:52:00,44.9,42.0,30.08,NE,53,0.0,1.0,88,0.00,,,0.30,weatherlink.com 1.10,2013-04-21 00:52:00,
2013-04-20 21:07:00,44.8,42.0,30.09,North,9,0.0,1.0,89,0.00,,,0.30,weatherlink.com 1.10,2013-04-21 01:07:00,
2013-04-20 21:22:00,44.1,41.0,30.09,North,9,0.0,0.0,90,0.00,,,0.30,weatherlink.com 1.10,2013-04-21 01:22:00,
2013-04-20 21:37:00,43.6,42.0,30.09,NW,320,0.0,1.0,93,0.00,,,0.30,weatherlink.com 1.10,2013-04-21 01:37:00,
2013-04-20 21:52:00,43.3,41.0,30.10,NE,44,0.0,1.0,92,0.00,,,0.30,weatherlink.com 1.10,2013-04-21 01:52:00,
2013-04-20 22:07:00,44.5,42.0,30.11,WNW,283,5.0,5.0,92,0.00,,,0.30,weatherlink.com 1.10,2013-04-21 02:07:00,
2013-04-20 22:22:00,46.4,42.0,30.12,WNW,294,5.0,6.0,84,0.00,,,0.30,weatherlink.com 1.10,2013-04-21 02:22:00,
2013-04-20 22:37:00,46.1,42.0,30.14,NW,311,3.0,7.0,85,0.00,,,0.30,weatherlink.com 1.10,2013-04-21 02:37:00,
2013-04-20 22:52:00,45.7,41.0,30.14,NW,314,7.0,11.0,84,0.00,,,0.30,weatherlink.com 1.10,2013-04-21 02:52:00,
2013-04-20 23:07:00,46.4,41.0,30.15,NW,307,6.0,9.0,81,0.00,,,0.30,weatherlink.com 1.10,2013-04-21 03:07:00,
2013-04-20 23:23:00,46.6,40.0,30.16,NNW,342,4.0,8.0,79,0.00,,,0.30,weatherlink.com 1.10,2013-04-21 03:23:00,
2013-04-20 23:38:00,46.9,39.0,30.17,NNW,329,5.0,8.0,74,0.00,,,0.30,weatherlink.com 1.10,2013-04-21 03:38:00,
2013-04-20 23:53:00,46.9,39.0,30.18,NNW,330,6.0,9.0,73,0.00,,,0.30,weatherlink.com 1.10,2013-04-21 03:53:00,